createdAt,value
2018-09-03T00:00:45.701Z,54.87
2018-09-03T00:03:17.734Z,35.60
2018-09-03T00:05:49.337Z,41.13
2018-09-03T00:08:20.773Z,40.37
2018-09-03T00:10:52.912Z,47.43
2018-09-03T00:13:24.194Z,30.70
2018-09-03T00:15:55.865Z,40.73
2018-09-03T00:18:27.087Z,36.57
2018-09-03T00:20:58.812Z,34.37
2018-09-03T00:23:30.431Z,35.00
2018-09-03T00:26:02.032Z,39.10
2018-09-03T00:28:34.099Z,40.03
2018-09-03T00:31:10.481Z,32.20
2018-09-03T00:33:46.629Z,35.47
2018-09-03T00:36:23.139Z,36.13
2018-09-03T00:38:59.446Z,50.27
2018-09-03T00:41:35.800Z,40.47
2018-09-03T00:44:11.925Z,35.70
2018-09-03T00:46:48.194Z,38.80
2018-09-03T00:49:20.124Z,45.53
2018-09-03T00:51:52.017Z,30.40
2018-09-03T00:54:23.585Z,46.70
2018-09-03T00:56:57.417Z,44.53
2018-09-03T00:59:28.642Z,41.33
2018-09-03T01:02:00.217Z,28.97
2018-09-03T01:04:31.698Z,28.53
2018-09-03T01:07:03.944Z,40.53
2018-09-03T01:09:35.261Z,31.07
2018-09-03T01:12:07.058Z,34.37
2018-09-03T01:14:38.258Z,34.43
2018-09-03T01:17:10.070Z,44.50
2018-09-03T01:19:41.594Z,56.63
2018-09-03T01:22:13.403Z,29.43
2018-09-03T01:24:44.654Z,28.20
2018-09-03T01:27:16.370Z,39.50
2018-09-03T01:29:47.671Z,30.07
2018-09-03T01:32:19.625Z,36.70
2018-09-03T01:34:51.079Z,31.67
2018-09-03T01:37:22.722Z,44.57
2018-09-03T01:39:53.985Z,41.00
2018-09-03T01:42:26.189Z,32.13
2018-09-03T01:44:57.480Z,45.93
2018-09-03T01:47:29.197Z,31.80
2018-09-03T01:50:00.404Z,35.00
2018-09-03T01:52:32.128Z,48.87
2018-09-03T01:55:03.521Z,35.43
2018-09-03T01:57:36.476Z,38.10
2018-09-03T02:00:08.155Z,34.73
2018-09-03T02:02:40.115Z,38.77
2018-09-03T02:05:11.653Z,39.90
2018-09-03T02:07:43.470Z,33.20
2018-09-03T02:10:15.501Z,50.00
2018-09-03T02:12:46.951Z,45.00
2018-09-03T02:15:18.577Z,29.23
2018-09-03T02:17:50.193Z,34.27
2018-09-03T02:20:21.705Z,33.03
2018-09-03T02:22:53.277Z,49.87
2018-09-03T02:25:24.578Z,40.80
2018-09-03T02:27:56.337Z,42.27
2018-09-03T02:30:27.897Z,37.57
2018-09-03T02:32:59.345Z,45.10
2018-09-03T02:35:30.748Z,31.60
2018-09-03T02:38:02.385Z,40.13
2018-09-03T02:40:33.853Z,41.63
2018-09-03T02:43:05.656Z,39.80
2018-09-03T02:45:36.971Z,37.20
2018-09-03T02:48:10.792Z,36.23
2018-09-03T02:50:42.113Z,45.47
2018-09-03T02:53:14.013Z,37.67
2018-09-03T02:55:45.642Z,46.47
2018-09-03T02:58:22.127Z,42.10
2018-09-03T03:00:53.469Z,62.63
2018-09-03T03:03:24.952Z,41.70
2018-09-03T03:05:56.332Z,37.83
2018-09-03T03:08:27.889Z,47.17
2018-09-03T03:10:59.158Z,41.57
2018-09-03T03:13:30.956Z,63.10
2018-09-03T03:16:02.277Z,53.87
2018-09-03T03:18:33.770Z,60.57
2018-09-03T03:21:05.352Z,40.37
2018-09-03T03:23:36.941Z,45.43
2018-09-03T03:26:08.390Z,38.50
2018-09-03T03:28:40.279Z,47.83
2018-09-03T03:31:12.103Z,35.73
2018-09-03T03:33:43.832Z,40.60
2018-09-03T03:36:15.831Z,43.23
2018-09-03T03:38:47.430Z,39.57
2018-09-03T03:41:18.803Z,38.87
2018-09-03T03:43:50.365Z,39.63
2018-09-03T03:46:21.753Z,39.80
2018-09-03T03:48:53.321Z,49.83
2018-09-03T03:51:24.791Z,44.23
2018-09-03T03:53:56.495Z,43.43
2018-09-03T03:56:27.886Z,51.67
2018-09-03T03:59:02.076Z,47.43
2018-09-03T04:01:33.505Z,49.43
2018-09-03T04:04:05.569Z,57.40
2018-09-03T04:06:37.030Z,49.63
2018-09-03T04:09:11.179Z,43.77
2018-09-03T04:11:42.677Z,58.43
2018-09-03T04:14:14.439Z,56.27
2018-09-03T04:16:45.835Z,67.40
2018-09-03T04:19:17.593Z,52.60
2018-09-03T04:21:49.031Z,55.77
2018-09-03T04:24:20.848Z,59.07
2018-09-03T04:26:52.344Z,64.30
2018-09-03T04:29:24.045Z,65.00
2018-09-03T04:31:55.194Z,55.33
2018-09-03T04:34:27.158Z,58.10
2018-09-03T04:36:58.765Z,72.47
2018-09-03T04:39:30.505Z,60.00
2018-09-03T04:42:03.782Z,75.70
2018-09-03T04:44:35.861Z,63.27
2018-09-03T04:47:07.433Z,67.32
2018-09-03T04:49:39.144Z,57.88
2018-09-03T04:52:10.533Z,45.95
2018-09-03T04:54:42.327Z,59.98
2018-09-03T04:57:13.891Z,46.45
2018-09-03T04:59:46.278Z,66.02
2018-09-03T05:02:17.742Z,73.70
2018-09-03T05:04:49.202Z,67.32
2018-09-03T05:07:20.742Z,75.52
2018-09-03T05:09:52.397Z,71.35
2018-09-03T05:12:23.934Z,68.62
2018-09-03T05:14:55.737Z,62.08
2018-09-03T05:17:27.020Z,60.73
2018-09-03T05:19:58.765Z,77.82
2018-09-03T05:22:30.301Z,79.92
2018-09-03T05:25:02.528Z,80.30
2018-09-03T05:27:33.765Z,81.47
2018-09-03T05:30:05.390Z,116.33
2018-09-03T05:32:36.992Z,108.12
2018-09-03T05:35:08.649Z,94.85
2018-09-03T05:37:40.089Z,99.07
2018-09-03T05:40:11.982Z,115.00
2018-09-03T05:42:43.260Z,119.25
2018-09-03T05:45:15.417Z,102.30
2018-09-03T05:47:46.824Z,89.85
2018-09-03T05:50:18.396Z,115.25
2018-09-03T05:52:49.718Z,103.15
2018-09-03T05:55:22.020Z,92.92
2018-09-03T05:57:53.575Z,100.72
2018-09-03T06:00:26.725Z,102.27
2018-09-03T06:02:58.003Z,102.32
2018-09-03T06:05:29.697Z,103.07
2018-09-03T06:08:01.600Z,112.37
2018-09-03T06:10:33.843Z,114.95
2018-09-03T06:13:05.938Z,92.82
2018-09-03T06:15:37.842Z,118.28
2018-09-03T06:18:09.865Z,109.87
2018-09-03T06:20:41.576Z,103.80
2018-09-03T06:23:12.985Z,92.15
2018-09-03T06:25:44.917Z,100.27
2018-09-03T06:28:16.265Z,108.90
2018-09-03T06:30:47.920Z,104.00
2018-09-03T06:33:19.136Z,117.80
2018-09-03T06:35:50.836Z,126.45
2018-09-03T06:38:22.300Z,104.90
2018-09-03T06:40:53.823Z,130.35
2018-09-03T06:43:25.305Z,117.80
2018-09-03T06:45:57.209Z,107.92
2018-09-03T06:48:28.677Z,91.25
2018-09-03T06:51:00.213Z,111.52
2018-09-03T06:53:31.800Z,104.87
2018-09-03T06:56:04.001Z,127.75
2018-09-03T06:58:35.358Z,112.25
2018-09-03T07:01:08.316Z,127.17
2018-09-03T07:03:39.706Z,117.53
2018-09-03T07:06:11.442Z,90.50
2018-09-03T07:08:42.940Z,132.63
2018-09-03T07:11:14.353Z,95.47
2018-09-03T07:13:45.704Z,101.33
2018-09-03T07:16:17.401Z,114.40
2018-09-03T07:18:49.303Z,100.65
2018-09-03T07:21:21.166Z,93.97
2018-09-03T07:23:52.585Z,95.15
2018-09-03T07:26:24.333Z,83.92
2018-09-03T07:28:55.640Z,103.83
2018-09-03T07:31:27.341Z,85.72
2018-09-03T07:33:58.609Z,64.32
2018-09-03T07:36:30.192Z,79.58
2018-09-03T07:39:02.271Z,73.67
2018-09-03T07:41:33.891Z,98.78
2018-09-03T07:44:05.285Z,86.47
2018-09-03T07:46:37.158Z,104.97
2018-09-03T07:49:08.605Z,86.40
2018-09-03T07:51:40.161Z,89.05
2018-09-03T07:54:11.657Z,92.55
2018-09-03T07:56:43.161Z,114.80
2018-09-03T07:59:14.512Z,94.07
2018-09-03T08:01:48.043Z,103.50
2018-09-03T08:04:19.361Z,103.62
2018-09-03T08:06:51.490Z,110.17
2018-09-03T08:09:22.853Z,132.15
2018-09-03T08:11:54.765Z,95.07
2018-09-03T08:14:25.973Z,123.13
2018-09-03T08:16:57.795Z,107.03
2018-09-03T08:19:29.329Z,106.52
2018-09-03T08:22:02.554Z,106.35
2018-09-03T08:24:33.924Z,96.65
2018-09-03T08:27:06.458Z,105.43
2018-09-03T08:29:37.926Z,109.75
2018-09-03T08:32:09.330Z,90.90
2018-09-03T08:34:40.694Z,81.65
2018-09-03T08:37:12.381Z,98.92
2018-09-03T08:39:44.191Z,125.72
2018-09-03T08:42:16.082Z,92.65
2018-09-03T08:44:47.460Z,100.05
2018-09-03T08:47:19.526Z,82.45
2018-09-03T08:49:50.906Z,88.42
2018-09-03T08:52:22.733Z,92.05
2018-09-03T08:54:54.234Z,94.92
2018-09-03T08:57:26.103Z,100.42
2018-09-03T08:59:57.533Z,108.92
2018-09-03T09:02:31.617Z,87.53
2018-09-03T09:05:03.861Z,84.85
2018-09-03T09:07:35.547Z,75.22
2018-09-03T09:10:07.126Z,95.07
2018-09-03T09:12:39.205Z,93.45
2018-09-03T09:15:10.777Z,78.85
2018-09-03T09:17:42.761Z,86.25
2018-09-03T09:20:14.150Z,79.32
2018-09-03T09:22:45.953Z,116.33
2018-09-03T09:25:17.502Z,81.00
2018-09-03T09:27:49.338Z,98.30
2018-09-03T09:30:20.710Z,76.35
2018-09-03T09:32:52.485Z,77.37
2018-09-03T09:35:23.817Z,80.57
2018-09-03T09:37:55.844Z,75.25
2018-09-03T09:40:27.242Z,91.78
2018-09-03T09:42:59.618Z,80.22
2018-09-03T09:45:31.237Z,85.67
2018-09-03T09:48:04.997Z,74.03
2018-09-03T09:50:36.309Z,82.22
2018-09-03T09:53:09.776Z,69.97
2018-09-03T09:55:41.307Z,64.25
2018-09-03T09:58:15.167Z,76.77
2018-09-03T10:00:51.551Z,87.17
2018-09-03T10:03:24.950Z,65.32
2018-09-03T10:05:56.395Z,75.42
2018-09-03T10:08:28.312Z,77.72
2018-09-03T10:10:59.625Z,65.45
2018-09-03T10:13:31.453Z,68.60
2018-09-03T10:16:02.972Z,71.22
2018-09-03T10:18:35.266Z,73.70
2018-09-03T10:21:07.125Z,74.10
2018-09-03T10:23:38.494Z,69.00
2018-09-03T10:26:09.991Z,93.15
2018-09-03T10:28:42.006Z,79.87
2018-09-03T10:31:13.673Z,69.00
2018-09-03T10:33:45.310Z,62.62
2018-09-03T10:36:16.610Z,80.97
2018-09-03T10:38:47.981Z,79.32
2018-09-03T10:41:19.489Z,71.72
2018-09-03T10:43:51.421Z,63.95
2018-09-03T10:46:22.666Z,68.02
2018-09-03T10:48:54.358Z,71.53
2018-09-03T10:51:25.917Z,74.67
2018-09-03T10:53:57.318Z,78.00
2018-09-03T10:56:28.897Z,78.47
2018-09-03T10:59:00.594Z,83.35
2018-09-03T11:01:32.037Z,74.20
2018-09-03T11:04:06.944Z,86.08
2018-09-03T11:06:38.451Z,76.80
2018-09-03T11:09:11.741Z,84.83
2018-09-03T11:11:43.063Z,78.55
2018-09-03T11:14:15.489Z,88.17
2018-09-03T11:16:46.969Z,96.02
2018-09-03T11:19:20.057Z,87.42
2018-09-03T11:21:51.344Z,85.00
2018-09-03T11:24:22.831Z,80.87
2018-09-03T11:26:54.153Z,94.58
2018-09-03T11:29:25.898Z,79.22
2018-09-03T11:31:57.344Z,73.95
2018-09-03T11:34:29.070Z,73.90
2018-09-03T11:37:00.556Z,70.70
2018-09-03T11:39:32.153Z,94.77
2018-09-03T11:42:03.486Z,83.97
2018-09-03T11:44:35.400Z,68.33
2018-09-03T11:47:06.742Z,73.45
2018-09-03T11:49:39.520Z,78.03
2018-09-03T11:52:10.771Z,75.62
2018-09-03T11:54:42.228Z,101.85
2018-09-03T11:57:13.477Z,76.80
2018-09-03T11:59:45.258Z,72.62
2018-09-03T12:02:16.906Z,78.47
2018-09-03T12:04:50.678Z,71.13
2018-09-03T12:07:22.702Z,75.13
2018-09-03T12:09:54.210Z,72.03
2018-09-03T12:12:26.184Z,83.63
2018-09-03T12:15:01.217Z,69.83
2018-09-03T12:17:32.700Z,70.00
2018-09-03T12:20:04.157Z,82.87
2018-09-03T12:22:35.407Z,79.07
2018-09-03T12:25:08.246Z,76.83
2018-09-03T12:27:39.492Z,63.83
2018-09-03T12:30:12.029Z,65.77
2018-09-03T12:32:44.341Z,70.43
2018-09-03T12:35:16.771Z,81.13
2018-09-03T12:37:49.001Z,74.53
2018-09-03T12:40:20.864Z,54.87
2018-09-03T12:42:52.606Z,66.60
2018-09-03T12:45:29.016Z,61.93
2018-09-03T12:48:00.358Z,69.13
2018-09-03T12:50:32.313Z,60.10
2018-09-03T12:53:03.766Z,58.37
2018-09-03T12:55:35.709Z,59.23
2018-09-03T12:58:07.218Z,49.00
2018-09-03T13:00:38.980Z,50.80
2018-09-03T13:03:10.506Z,54.00
2018-09-03T13:05:43.806Z,52.10
2018-09-03T13:08:15.101Z,65.23
2018-09-03T13:10:46.826Z,56.77
2018-09-03T13:13:18.178Z,57.47
2018-09-03T13:15:50.189Z,69.03
2018-09-03T13:18:21.596Z,52.80
2018-09-03T13:20:53.364Z,65.17
2018-09-03T13:23:24.493Z,57.43
2018-09-03T13:25:55.894Z,59.37
2018-09-03T13:28:27.277Z,48.93
2018-09-03T13:30:59.029Z,58.43
2018-09-03T13:33:30.338Z,55.10
2018-09-03T13:36:02.005Z,46.03
2018-09-03T13:38:33.590Z,48.97
2018-09-03T13:41:07.075Z,47.10
2018-09-03T13:43:38.351Z,68.50
2018-09-03T13:46:10.231Z,59.23
2018-09-03T13:48:41.802Z,47.97
2018-09-03T13:51:13.388Z,45.47
2018-09-03T13:53:44.773Z,51.43
2018-09-03T13:56:16.291Z,53.93
2018-09-03T13:58:47.562Z,55.13
2018-09-03T14:01:19.317Z,53.77
2018-09-03T14:03:50.701Z,61.87
2018-09-03T14:06:23.241Z,55.73
2018-09-03T14:08:54.597Z,61.40
2018-09-03T14:11:26.485Z,55.83
2018-09-03T14:13:58.039Z,47.83
2018-09-03T14:16:29.685Z,63.60
2018-09-03T14:19:01.384Z,70.53
2018-09-03T14:21:33.579Z,66.00
2018-09-03T14:24:05.038Z,66.33
2018-09-03T14:26:36.625Z,67.30
2018-09-03T14:29:08.073Z,65.43
2018-09-03T14:31:39.965Z,62.27
2018-09-03T14:34:11.399Z,64.00
2018-09-03T14:36:42.909Z,66.17
2018-09-03T14:39:14.241Z,104.40
2018-09-03T14:41:46.058Z,66.30
2018-09-03T14:44:17.401Z,61.67
2018-09-03T14:46:49.186Z,67.60
2018-09-03T14:49:21.205Z,56.87
2018-09-03T14:51:52.934Z,58.83
2018-09-03T14:54:24.425Z,53.77
2018-09-03T14:56:56.098Z,54.43
2018-09-03T14:59:27.434Z,60.03
2018-09-03T15:01:59.847Z,66.80
2018-09-03T15:04:32.210Z,49.30
2018-09-03T15:07:05.091Z,53.77
2018-09-03T15:09:36.581Z,47.70
2018-09-03T15:12:07.205Z,51.00
2018-09-03T15:14:38.612Z,42.27
2018-09-03T15:17:10.625Z,40.10
2018-09-03T15:19:41.973Z,41.07
2018-09-03T15:22:13.593Z,39.23
2018-09-03T15:24:45.025Z,51.50
2018-09-03T15:27:16.629Z,44.97
2018-09-03T15:29:47.989Z,37.07
2018-09-03T15:32:20.170Z,37.60
2018-09-03T15:34:51.468Z,47.17
2018-09-03T15:37:23.009Z,43.93
2018-09-03T15:39:54.880Z,56.13
2018-09-03T15:42:26.714Z,49.97
2018-09-03T15:44:58.498Z,43.07
2018-09-03T15:47:30.159Z,53.33
2018-09-03T15:50:01.474Z,41.77
2018-09-03T15:52:33.185Z,41.60
2018-09-03T15:55:08.189Z,44.37
2018-09-03T15:57:39.676Z,42.77
2018-09-03T16:00:11.705Z,53.43
2018-09-03T16:02:43.546Z,46.73
2018-09-03T16:05:14.941Z,52.30
2018-09-03T16:07:47.315Z,54.10
2018-09-03T16:10:18.581Z,59.73
2018-09-03T16:12:50.393Z,64.70
2018-09-03T16:15:21.830Z,53.77
2018-09-03T16:17:55.024Z,48.80
2018-09-03T16:20:26.327Z,60.63
2018-09-03T16:22:58.454Z,55.93
2018-09-03T16:25:29.930Z,61.17
2018-09-03T16:28:04.799Z,50.13
2018-09-03T16:30:36.402Z,75.43
2018-09-03T16:33:09.959Z,76.00
2018-09-03T16:35:41.527Z,70.43
2018-09-03T16:38:13.723Z,69.00
2018-09-03T16:40:45.147Z,70.93
2018-09-03T16:43:16.644Z,57.50
2018-09-03T16:45:47.847Z,61.53
2018-09-03T16:48:19.837Z,70.67
2018-09-03T16:50:51.394Z,57.37
2018-09-03T16:53:22.885Z,56.67
2018-09-03T16:55:54.426Z,65.67
2018-09-03T16:58:26.188Z,51.27
2018-09-03T17:00:57.504Z,50.20
2018-09-03T17:03:29.536Z,58.57
2018-09-03T17:06:01.148Z,54.13
2018-09-03T17:08:36.262Z,51.20
2018-09-03T17:11:09.165Z,52.10
2018-09-03T17:13:40.809Z,54.37
2018-09-03T17:16:14.544Z,55.10
2018-09-03T17:18:47.869Z,39.03
2018-09-03T17:21:19.350Z,45.77
2018-09-03T17:23:50.958Z,46.10
2018-09-03T17:26:22.700Z,52.10
2018-09-03T17:28:54.557Z,65.50
2018-09-03T17:31:26.136Z,49.33
2018-09-03T17:33:57.928Z,55.40
2018-09-03T17:36:38.319Z,61.73
2018-09-03T17:39:10.506Z,58.60
2018-09-03T17:41:42.041Z,43.00
2018-09-03T17:44:13.629Z,55.20
2018-09-03T17:46:45.850Z,46.70
2018-09-03T17:49:17.540Z,49.80
2018-09-03T17:51:49.006Z,49.50
2018-09-03T17:54:21.121Z,67.47
2018-09-03T17:56:52.398Z,43.37
2018-09-03T17:59:24.234Z,61.93
2018-09-03T18:01:55.465Z,58.03
2018-09-03T18:04:27.187Z,43.27
2018-09-03T18:06:58.597Z,40.50
2018-09-03T18:09:30.609Z,49.97
2018-09-03T18:12:03.861Z,40.37
2018-09-03T18:14:35.266Z,57.20
2018-09-03T18:17:08.118Z,38.30
2018-09-03T18:19:39.934Z,47.50
2018-09-03T18:22:11.352Z,52.43
2018-09-03T18:24:42.693Z,42.17
2018-09-03T18:27:13.898Z,41.57
2018-09-03T18:29:45.637Z,44.37
2018-09-03T18:32:17.026Z,52.10
2018-09-03T18:34:50.042Z,48.03
2018-09-03T18:37:21.203Z,44.07
2018-09-03T18:39:52.993Z,40.60
2018-09-03T18:42:24.225Z,46.93
2018-09-03T18:44:55.992Z,49.53
2018-09-03T18:47:28.203Z,48.27
2018-09-03T18:50:00.196Z,56.00
2018-09-03T18:52:32.010Z,44.77
2018-09-03T18:55:05.484Z,57.10
2018-09-03T18:57:37.186Z,48.43
2018-09-03T19:00:09.694Z,62.87
2018-09-03T19:02:40.929Z,50.80
2018-09-03T19:05:12.773Z,49.80
2018-09-03T19:07:44.321Z,57.33
2018-09-03T19:10:16.955Z,52.50
2018-09-03T19:12:48.432Z,57.43
2018-09-03T19:15:20.035Z,48.73
2018-09-03T19:17:51.888Z,53.10
2018-09-03T19:20:23.653Z,39.80
2018-09-03T19:22:55.169Z,44.27
2018-09-03T19:25:26.965Z,46.53
2018-09-03T19:27:58.313Z,54.83
2018-09-03T19:30:30.134Z,46.63
2018-09-03T19:33:03.845Z,45.37
2018-09-03T19:35:35.530Z,42.93
2018-09-03T19:38:08.635Z,51.83
2018-09-03T19:40:40.237Z,44.23
2018-09-03T19:43:12.586Z,44.27
2018-09-03T19:45:44.628Z,52.93
2018-09-03T19:48:16.246Z,39.93
2018-09-03T19:50:47.700Z,48.83
2018-09-03T19:53:19.115Z,53.60
2018-09-03T19:55:50.894Z,45.83
2018-09-03T19:58:22.225Z,54.47
2018-09-03T20:00:53.953Z,40.27
2018-09-03T20:03:25.281Z,53.20
2018-09-03T20:05:57.261Z,43.50
2018-09-03T20:08:28.814Z,53.93
2018-09-03T20:11:00.780Z,43.67
2018-09-03T20:13:32.354Z,53.47
2018-09-03T20:16:04.097Z,41.37
2018-09-03T20:18:35.553Z,50.50
2018-09-03T20:21:07.314Z,55.70
2018-09-03T20:23:38.962Z,42.13
2018-09-03T20:26:10.498Z,44.47
2018-09-03T20:28:41.685Z,45.23
2018-09-03T20:31:13.566Z,43.10
2018-09-03T20:33:44.929Z,50.13
2018-09-03T20:36:16.418Z,60.10
2018-09-03T20:38:47.885Z,40.57
2018-09-03T20:41:19.545Z,46.53
2018-09-03T20:43:52.881Z,53.10
2018-09-03T20:46:24.513Z,48.27
2018-09-03T20:48:56.220Z,39.97
2018-09-03T20:51:27.947Z,39.60
2018-09-03T20:53:59.397Z,48.83
2018-09-03T20:56:31.150Z,49.83
2018-09-03T20:59:02.942Z,40.93
2018-09-03T21:01:35.178Z,38.53
2018-09-03T21:04:06.361Z,50.93
2018-09-03T21:06:38.206Z,43.27
2018-09-03T21:09:09.819Z,40.07
2018-09-03T21:11:41.395Z,35.77
2018-09-03T21:14:12.801Z,41.50
2018-09-03T21:16:44.581Z,56.73
2018-09-03T21:19:16.010Z,49.50
2018-09-03T21:21:47.619Z,37.03
2018-09-03T21:24:18.966Z,60.10
2018-09-03T21:26:51.618Z,48.50
2018-09-03T21:29:22.939Z,44.33
2018-09-03T21:31:54.585Z,37.70
2018-09-03T21:34:26.167Z,44.17
2018-09-03T21:36:57.808Z,47.00
2018-09-03T21:39:29.214Z,42.50
2018-09-03T21:42:00.857Z,49.07
2018-09-03T21:44:34.453Z,48.43
2018-09-03T21:47:06.889Z,61.23
2018-09-03T21:49:38.305Z,39.77
2018-09-03T21:52:09.929Z,47.90
2018-09-03T21:54:41.450Z,52.87
2018-09-03T21:57:13.239Z,54.87
2018-09-03T21:59:44.498Z,48.67
2018-09-03T22:02:16.438Z,48.90
2018-09-03T22:04:48.125Z,47.80
2018-09-03T22:07:19.707Z,36.17
2018-09-03T22:09:51.042Z,54.37
2018-09-03T22:12:22.682Z,47.40
2018-09-03T22:14:54.020Z,47.00
2018-09-03T22:17:26.134Z,45.93
2018-09-03T22:19:57.446Z,42.73
2018-09-03T22:22:29.201Z,55.83
2018-09-03T22:25:01.468Z,48.90
2018-09-03T22:27:33.261Z,40.47
2018-09-03T22:30:04.819Z,45.53
2018-09-03T22:32:36.673Z,46.13
2018-09-03T22:35:08.145Z,44.00
2018-09-03T22:37:40.470Z,42.40
2018-09-03T22:40:11.805Z,37.73
2018-09-03T22:42:43.452Z,46.10
2018-09-03T22:45:16.363Z,52.30
2018-09-03T22:47:47.857Z,55.63
2018-09-03T22:50:19.379Z,39.10
2018-09-03T22:52:51.163Z,43.87
2018-09-03T22:55:22.553Z,46.03
2018-09-03T22:57:54.206Z,38.77
2018-09-03T23:00:25.515Z,52.63
2018-09-03T23:02:57.225Z,40.93
2018-09-03T23:05:28.708Z,36.80
2018-09-03T23:08:00.421Z,41.03
2018-09-03T23:10:31.790Z,44.63
2018-09-03T23:13:03.533Z,44.87
2018-09-03T23:15:34.817Z,42.80
2018-09-03T23:18:07.494Z,41.00
2018-09-03T23:20:38.845Z,42.43
2018-09-03T23:23:10.617Z,59.43
2018-09-03T23:25:41.990Z,34.90
2018-09-03T23:28:14.126Z,46.67
2018-09-03T23:30:46.187Z,28.10
2018-09-03T23:33:17.948Z,46.10
2018-09-03T23:35:49.481Z,41.17
2018-09-03T23:38:21.098Z,39.43
2018-09-03T23:40:52.392Z,45.43
2018-09-03T23:43:24.621Z,40.23
2018-09-03T23:45:57.325Z,56.80
2018-09-03T23:48:28.984Z,36.87
2018-09-03T23:51:00.534Z,42.97
2018-09-03T23:53:32.404Z,46.13
2018-09-03T23:56:07.431Z,38.67
2018-09-03T23:58:39.119Z,46.70
